createdAt,value
2023-04-11T00:00:16.991Z,87.63
2023-04-11T00:02:43.949Z,101.50
2023-04-11T00:05:11.136Z,74.13
2023-04-11T00:07:38.146Z,69.30
2023-04-11T00:10:07.438Z,76.68
2023-04-11T00:12:34.166Z,68.32
2023-04-11T00:15:01.417Z,74.40
2023-04-11T00:17:31.899Z,98.53
2023-04-11T00:20:01.769Z,91.15
2023-04-11T00:22:29.292Z,85.10
2023-04-11T00:24:56.151Z,76.43
2023-04-11T00:27:23.388Z,67.95
2023-04-11T00:29:50.214Z,71.13
2023-04-11T00:32:17.026Z,74.32
2023-04-11T00:34:43.843Z,73.70
2023-04-11T00:37:10.965Z,105.25
2023-04-11T00:39:38.410Z,100.18
2023-04-11T00:42:08.935Z,82.53
2023-04-11T00:44:36.422Z,92.75
2023-04-11T00:47:06.978Z,87.53
2023-04-11T00:49:34.515Z,84.88
2023-04-11T00:52:01.958Z,100.72
2023-04-11T00:54:31.837Z,61.33
2023-04-11T00:57:03.493Z,65.15
2023-04-11T00:59:32.605Z,78.65
2023-04-11T01:01:59.994Z,96.50
2023-04-11T01:04:26.875Z,92.20
2023-04-11T01:07:04.348Z,88.15
2023-04-11T01:09:33.828Z,78.57
2023-04-11T01:12:03.350Z,84.78
2023-04-11T01:14:30.668Z,107.05
2023-04-11T01:16:58.774Z,87.80
2023-04-11T01:19:26.707Z,69.10
2023-04-11T01:21:56.397Z,73.82
2023-04-11T01:24:23.764Z,54.97
2023-04-11T01:26:50.775Z,62.63
2023-04-11T01:29:18.096Z,58.28
2023-04-11T01:31:45.374Z,57.70
2023-04-11T01:34:14.606Z,58.92
2023-04-11T01:36:42.641Z,84.05
2023-04-11T01:39:10.238Z,72.40
2023-04-11T01:41:37.832Z,66.60
2023-04-11T01:44:05.732Z,64.30
2023-04-11T01:46:33.051Z,74.63
2023-04-11T01:49:01.907Z,85.82
2023-04-11T01:51:28.846Z,73.10
2023-04-11T01:53:55.941Z,96.78
2023-04-11T01:56:22.748Z,68.72
2023-04-11T01:58:49.758Z,66.63
2023-04-11T02:01:20.295Z,78.78
2023-04-11T02:03:47.210Z,76.30
2023-04-11T02:06:16.264Z,70.32
2023-04-11T02:08:44.018Z,89.97
2023-04-11T02:11:11.313Z,75.15
2023-04-11T02:13:38.156Z,72.47
2023-04-11T02:16:07.526Z,56.58
2023-04-11T02:18:34.507Z,65.28
2023-04-11T02:21:01.583Z,74.60
2023-04-11T02:23:28.659Z,71.75
2023-04-11T02:25:55.633Z,65.05
2023-04-11T02:28:22.988Z,61.90
2023-04-11T02:30:51.599Z,61.60
2023-04-11T02:33:19.317Z,78.07
2023-04-11T02:35:47.291Z,82.82
2023-04-11T02:38:14.493Z,68.07
2023-04-11T02:40:41.753Z,67.05
2023-04-11T02:43:08.601Z,65.95
2023-04-11T02:45:35.692Z,82.72
2023-04-11T02:48:02.690Z,63.50
2023-04-11T02:50:29.944Z,51.63
2023-04-11T02:52:57.362Z,55.42
2023-04-11T02:55:24.262Z,60.45
2023-04-11T02:57:52.166Z,53.30
2023-04-11T03:00:20.266Z,62.75
2023-04-11T03:02:47.152Z,54.33
2023-04-11T03:05:16.068Z,60.92
2023-04-11T03:07:44.088Z,62.17
2023-04-11T03:10:11.032Z,61.92
2023-04-11T03:12:38.047Z,56.35
2023-04-11T03:15:05.413Z,61.67
2023-04-11T03:17:32.671Z,55.47
2023-04-11T03:19:59.846Z,55.95
2023-04-11T03:22:26.698Z,52.95
2023-04-11T03:24:55.844Z,58.17
2023-04-11T03:27:25.048Z,56.63
2023-04-11T03:29:52.212Z,55.20
2023-04-11T03:32:19.365Z,64.82
2023-04-11T03:34:46.356Z,62.05
2023-04-11T03:37:13.532Z,63.25
2023-04-11T03:39:40.448Z,56.42
2023-04-11T03:42:07.713Z,69.30
2023-04-11T03:44:36.677Z,60.17
2023-04-11T03:47:03.904Z,65.60
2023-04-11T03:49:30.687Z,54.95
2023-04-11T03:51:57.989Z,60.25
2023-04-11T03:54:24.761Z,55.00
2023-04-11T03:56:51.555Z,55.97
2023-04-11T03:59:22.603Z,55.75
2023-04-11T04:01:49.746Z,53.78
2023-04-11T04:04:19.289Z,60.72
2023-04-11T04:06:46.448Z,67.85
2023-04-11T04:09:13.584Z,59.35
2023-04-11T04:11:40.476Z,52.13
2023-04-11T04:14:07.400Z,55.28
2023-04-11T04:16:34.225Z,57.75
2023-04-11T04:19:02.900Z,51.38
2023-04-11T04:21:32.886Z,60.28
2023-04-11T04:24:03.707Z,54.20
2023-04-11T04:26:33.638Z,53.33
2023-04-11T04:29:06.710Z,59.92
2023-04-11T04:31:34.112Z,55.25
2023-04-11T04:34:09.042Z,53.72
2023-04-11T04:36:46.343Z,55.45
2023-04-11T04:39:17.719Z,55.08
2023-04-11T04:41:46.038Z,53.28
2023-04-11T04:44:13.255Z,47.75
2023-04-11T04:46:40.472Z,61.55
2023-04-11T04:49:08.105Z,52.13
2023-04-11T04:51:36.990Z,56.10
2023-04-11T04:54:04.977Z,53.10
2023-04-11T04:56:32.448Z,54.28
2023-04-11T04:58:59.252Z,50.10
2023-04-11T05:01:26.693Z,50.22
2023-04-11T05:04:01.936Z,46.13
2023-04-11T05:06:32.076Z,49.88
2023-04-11T05:09:01.048Z,48.90
2023-04-11T05:11:29.187Z,49.55
2023-04-11T05:13:56.259Z,42.30
2023-04-11T05:16:23.420Z,46.40
2023-04-11T05:18:50.219Z,42.83
2023-04-11T05:21:18.973Z,45.63
2023-04-11T05:23:45.798Z,50.30
2023-04-11T05:26:13.102Z,51.00
2023-04-11T05:28:40.281Z,48.90
2023-04-11T05:31:08.500Z,52.63
2023-04-11T05:33:38.186Z,52.67
2023-04-11T05:36:06.634Z,48.53
2023-04-11T05:38:33.803Z,45.42
2023-04-11T05:41:01.100Z,49.10
2023-04-11T05:43:27.873Z,43.17
2023-04-11T05:45:54.743Z,42.13
2023-04-11T05:48:22.944Z,43.00
2023-04-11T05:50:50.728Z,40.42
2023-04-11T05:53:17.949Z,42.50
2023-04-11T05:55:45.314Z,49.70
2023-04-11T05:58:12.667Z,45.03
2023-04-11T06:00:39.924Z,43.95
2023-04-11T06:03:10.410Z,40.88
2023-04-11T06:05:37.628Z,38.90
2023-04-11T06:08:06.798Z,46.17
2023-04-11T06:10:34.742Z,39.53
2023-04-11T06:13:01.619Z,43.05
2023-04-11T06:15:29.329Z,37.72
2023-04-11T06:17:56.634Z,37.45
2023-04-11T06:20:24.337Z,41.15
2023-04-11T06:22:51.539Z,37.08
2023-04-11T06:25:20.814Z,38.22
2023-04-11T06:27:48.124Z,38.33
2023-04-11T06:30:15.644Z,39.35
2023-04-11T06:32:42.633Z,36.90
2023-04-11T06:35:09.890Z,38.58
2023-04-11T06:37:36.714Z,37.88
2023-04-11T06:40:06.303Z,38.88
2023-04-11T06:42:33.481Z,32.97
2023-04-11T06:45:01.420Z,38.58
2023-04-11T06:47:28.569Z,34.78
2023-04-11T06:49:56.072Z,35.67
2023-04-11T06:52:23.276Z,36.30
2023-04-11T06:54:50.065Z,35.05
2023-04-11T06:57:17.936Z,33.28
2023-04-11T06:59:44.949Z,43.90
2023-04-11T07:02:11.765Z,36.10
2023-04-11T07:04:38.642Z,34.53
2023-04-11T07:07:07.203Z,38.03
2023-04-11T07:09:33.963Z,36.25
2023-04-11T07:12:01.741Z,33.13
2023-04-11T07:14:28.538Z,37.10
2023-04-11T07:16:55.305Z,33.25
2023-04-11T07:19:22.528Z,34.92
2023-04-11T07:21:49.753Z,37.45
2023-04-11T07:24:18.691Z,41.72
2023-04-11T07:26:46.751Z,33.08
2023-04-11T07:29:14.903Z,36.25
2023-04-11T07:31:42.062Z,38.50
2023-04-11T07:34:09.391Z,33.95
2023-04-11T07:36:36.766Z,27.85
2023-04-11T07:39:04.513Z,27.33
2023-04-11T07:41:31.620Z,33.83
2023-04-11T07:43:58.682Z,36.58
2023-04-11T07:46:25.610Z,46.15
2023-04-11T07:48:52.362Z,31.40
2023-04-11T07:51:19.126Z,36.40
2023-04-11T07:53:46.024Z,37.05
2023-04-11T07:56:15.323Z,30.25
2023-04-11T07:58:43.520Z,29.27
2023-04-11T08:01:20.936Z,35.15
2023-04-11T08:03:48.366Z,32.83
2023-04-11T08:06:15.427Z,27.77
2023-04-11T08:08:42.599Z,28.90
2023-04-11T08:11:09.392Z,33.55
2023-04-11T08:13:36.595Z,36.38
2023-04-11T08:16:09.962Z,27.98
2023-04-11T08:18:42.546Z,26.48
2023-04-11T08:21:11.517Z,32.80
2023-04-11T08:23:40.202Z,32.15
2023-04-11T08:26:08.313Z,28.70
2023-04-11T08:28:36.486Z,30.98
2023-04-11T08:31:05.011Z,29.90
2023-04-11T08:33:33.545Z,28.50
2023-04-11T08:36:00.380Z,27.50
2023-04-11T08:38:27.543Z,25.58
2023-04-11T08:40:55.337Z,30.13
2023-04-11T08:43:22.947Z,29.83
2023-04-11T08:45:50.009Z,28.77
2023-04-11T08:48:17.312Z,39.22
2023-04-11T08:50:45.077Z,31.88
2023-04-11T08:53:12.141Z,31.92
2023-04-11T08:55:47.429Z,27.25
2023-04-11T08:58:14.508Z,30.98
2023-04-11T09:00:41.648Z,34.88
2023-04-11T09:03:10.024Z,29.73
2023-04-11T09:05:39.114Z,34.63
2023-04-11T09:08:10.899Z,33.05
2023-04-11T09:10:43.317Z,29.85
2023-04-11T09:13:36.538Z,29.35
2023-04-11T09:16:15.248Z,33.55
2023-04-11T09:18:45.006Z,34.08
2023-04-11T09:21:14.477Z,28.33
2023-04-11T09:23:41.480Z,25.58
2023-04-11T09:26:13.342Z,26.37
2023-04-11T09:28:44.971Z,27.23
2023-04-11T09:31:13.901Z,24.55
2023-04-11T09:33:57.309Z,25.97
2023-04-11T09:36:25.503Z,20.70
2023-04-11T09:38:52.635Z,21.17
2023-04-11T09:41:33.469Z,68.33
2023-04-11T09:44:01.440Z,41.43
2023-04-11T09:46:28.800Z,27.97
2023-04-11T09:48:56.508Z,21.73
2023-04-11T09:51:35.875Z,22.80
2023-04-11T09:54:05.252Z,25.67
2023-04-11T09:56:34.545Z,20.60
2023-04-11T09:59:04.441Z,22.17
2023-04-11T10:01:32.907Z,24.53
2023-04-11T10:04:01.381Z,20.00
2023-04-11T10:06:34.492Z,16.53
2023-04-11T10:09:12.233Z,15.03
2023-04-11T10:11:44.016Z,16.30
2023-04-11T10:14:39.112Z,21.23
2023-04-11T10:17:21.270Z,22.00
2023-04-11T10:19:51.901Z,16.83
2023-04-11T10:22:40.638Z,16.27
2023-04-11T10:25:47.882Z,25.93
2023-04-11T10:28:38.833Z,18.80
2023-04-11T10:31:07.550Z,21.53
2023-04-11T10:33:36.136Z,17.83
2023-04-11T10:36:12.897Z,18.33
2023-04-11T10:38:48.892Z,14.37
2023-04-11T10:41:33.420Z,14.33
2023-04-11T10:44:24.913Z,17.33
2023-04-11T10:46:56.258Z,17.57
2023-04-11T10:49:37.976Z,17.47
2023-04-11T10:52:18.759Z,14.50
2023-04-11T10:54:46.771Z,12.40
2023-04-11T10:57:14.102Z,17.80
2023-04-11T10:59:50.269Z,11.87
2023-04-11T11:02:20.172Z,12.20
2023-04-11T11:04:47.592Z,15.47
2023-04-11T11:07:18.765Z,11.83
2023-04-11T11:09:51.486Z,11.70
2023-04-11T11:12:18.454Z,15.43
2023-04-11T11:14:48.168Z,14.53
2023-04-11T11:17:17.249Z,14.23
2023-04-11T11:19:48.226Z,15.65
2023-04-11T11:22:16.529Z,19.70
2023-04-11T11:24:43.554Z,17.58
2023-04-11T11:27:24.166Z,15.70
2023-04-11T11:29:52.052Z,12.65
2023-04-11T11:32:28.755Z,16.58
2023-04-11T11:34:58.008Z,7.57
2023-04-11T11:37:25.020Z,8.52
2023-04-11T11:39:52.327Z,9.52
2023-04-11T11:42:19.373Z,9.82
2023-04-11T11:44:46.675Z,6.75
2023-04-11T11:47:16.984Z,7.30
2023-04-11T11:49:45.190Z,8.10
2023-04-11T11:52:12.592Z,6.95
2023-04-11T11:54:47.612Z,4.88
2023-04-11T11:57:24.636Z,4.55
2023-04-11T11:59:56.241Z,6.28
2023-04-11T12:02:25.622Z,4.68
2023-04-11T12:05:00.620Z,5.85
2023-04-11T12:07:32.477Z,6.85
2023-04-11T12:10:06.806Z,5.95
2023-04-11T12:12:38.026Z,5.10
2023-04-11T12:15:18.644Z,6.05
2023-04-11T12:17:52.199Z,3.95
2023-04-11T12:20:27.657Z,6.80
2023-04-11T12:22:55.564Z,4.45
2023-04-11T12:25:22.522Z,4.07
2023-04-11T12:27:49.525Z,7.72
2023-04-11T12:30:16.581Z,4.15
2023-04-11T12:32:44.444Z,5.95
2023-04-11T12:35:13.041Z,8.13
2023-04-11T12:37:40.401Z,5.22
2023-04-11T12:40:15.420Z,6.95
2023-04-11T12:42:53.561Z,5.75
2023-04-11T12:45:24.095Z,5.35
2023-04-11T12:47:51.361Z,4.82
2023-04-11T12:50:18.710Z,5.80
2023-04-11T12:52:45.993Z,5.30
2023-04-11T12:55:13.767Z,6.55
2023-04-11T12:57:41.546Z,6.57
2023-04-11T13:00:11.128Z,6.70
2023-04-11T13:02:42.891Z,6.00
2023-04-11T13:05:14.813Z,7.45
2023-04-11T13:07:45.521Z,8.93
2023-04-11T13:10:14.384Z,8.77
2023-04-11T13:12:44.311Z,9.93
2023-04-11T13:15:16.852Z,7.85
2023-04-11T13:17:44.006Z,8.63
2023-04-11T13:20:11.661Z,11.10
2023-04-11T13:22:39.824Z,5.65
2023-04-11T13:25:07.506Z,6.18
2023-04-11T13:27:34.950Z,6.32
2023-04-11T13:30:02.262Z,5.57
2023-04-11T13:32:31.543Z,4.38
2023-04-11T13:34:58.424Z,5.57
2023-04-11T13:37:25.284Z,9.05
2023-04-11T13:39:52.022Z,6.45
2023-04-11T13:42:18.828Z,8.50
2023-04-11T13:44:46.294Z,8.10
2023-04-11T13:47:13.784Z,3.97
2023-04-11T13:49:40.880Z,3.03
2023-04-11T13:52:10.373Z,4.20
2023-04-11T13:54:38.874Z,4.47
2023-04-11T13:57:08.268Z,4.95
2023-04-11T13:59:35.853Z,3.67
2023-04-11T14:02:03.343Z,3.42
2023-04-11T14:04:38.425Z,3.03
2023-04-11T14:07:05.748Z,5.00
2023-04-11T14:09:32.473Z,4.35
2023-04-11T14:11:59.221Z,5.70
2023-04-11T14:14:27.428Z,4.78
2023-04-11T14:16:54.712Z,3.47
2023-04-11T14:19:23.187Z,7.32
2023-04-11T14:21:51.952Z,5.80
2023-04-11T14:24:22.390Z,4.13
2023-04-11T14:26:52.257Z,4.65
2023-04-11T14:29:21.001Z,3.17
2023-04-11T14:31:50.272Z,3.90
2023-04-11T14:34:18.859Z,4.90
2023-04-11T14:36:45.877Z,3.50
2023-04-11T14:39:13.477Z,5.97
2023-04-11T14:41:40.673Z,4.55
2023-04-11T14:44:07.430Z,4.75
2023-04-11T14:46:35.757Z,4.47
2023-04-11T14:49:02.751Z,6.72
2023-04-11T14:51:30.236Z,5.50
2023-04-11T14:54:00.272Z,6.45
2023-04-11T14:56:27.118Z,4.78
2023-04-11T14:58:55.695Z,5.32
2023-04-11T15:01:24.680Z,4.35
2023-04-11T15:03:53.163Z,4.82
2023-04-11T15:06:20.449Z,4.85
2023-04-11T15:08:48.281Z,5.35
2023-04-11T15:11:15.574Z,4.63
2023-04-11T15:13:42.424Z,6.25
2023-04-11T15:16:09.269Z,6.30
2023-04-11T15:18:37.249Z,6.85
2023-04-11T15:21:04.996Z,4.70
2023-04-11T15:23:31.751Z,5.65
2023-04-11T15:26:00.421Z,4.43
2023-04-11T15:28:31.833Z,3.90
2023-04-11T15:30:59.610Z,5.47
2023-04-11T15:33:27.661Z,5.40
2023-04-11T15:35:56.393Z,3.45
2023-04-11T15:38:24.561Z,4.60
2023-04-11T15:40:56.280Z,3.95
2023-04-11T15:43:23.604Z,3.55
2023-04-11T15:45:52.621Z,3.20
2023-04-11T15:48:19.406Z,3.22
2023-04-11T15:50:54.543Z,3.58
2023-04-11T15:53:21.911Z,5.57
2023-04-11T15:55:49.647Z,4.00
2023-04-11T15:58:18.345Z,2.95
2023-04-11T16:00:46.979Z,5.10
2023-04-11T16:03:14.381Z,4.22
2023-04-11T16:05:43.250Z,5.63
2023-04-11T16:08:10.569Z,6.78
2023-04-11T16:10:37.320Z,3.80
2023-04-11T16:13:04.198Z,6.07
2023-04-11T16:15:34.874Z,4.72
2023-04-11T16:18:04.897Z,3.65
2023-04-11T16:20:34.884Z,3.80
2023-04-11T16:23:02.195Z,3.25
2023-04-11T16:25:29.103Z,6.35
2023-04-11T16:27:55.963Z,3.30
2023-04-11T16:30:22.720Z,4.03
2023-04-11T16:32:49.539Z,5.55
2023-04-11T16:35:16.840Z,2.80
2023-04-11T16:37:43.566Z,7.15
2023-04-11T16:40:11.761Z,2.92
2023-04-11T16:42:39.303Z,2.88
2023-04-11T16:45:08.123Z,4.40
2023-04-11T16:47:35.168Z,4.25
2023-04-11T16:50:02.347Z,6.82
2023-04-11T16:52:29.445Z,3.20
2023-04-11T16:54:56.986Z,4.38
2023-04-11T16:57:25.344Z,4.07
2023-04-11T16:59:52.167Z,2.92
2023-04-11T17:02:18.961Z,2.65
2023-04-11T17:04:46.205Z,3.10
2023-04-11T17:07:13.444Z,5.65
2023-04-11T17:09:41.676Z,7.70
2023-04-11T17:12:08.500Z,3.30
2023-04-11T17:14:36.507Z,2.88
2023-04-11T17:17:03.538Z,5.18
2023-04-11T17:19:31.120Z,5.47
2023-04-11T17:21:57.950Z,8.55
2023-04-11T17:24:25.383Z,5.97
2023-04-11T17:26:53.376Z,9.85
2023-04-11T17:29:21.831Z,2.92
2023-04-11T17:31:48.884Z,4.50
2023-04-11T17:34:15.955Z,4.57
2023-04-11T17:36:43.120Z,3.63
2023-04-11T17:39:18.240Z,3.78
2023-04-11T17:41:48.439Z,7.88
2023-04-11T17:44:16.087Z,9.20
2023-04-11T17:46:42.840Z,3.50
2023-04-11T17:49:10.054Z,5.80
2023-04-11T17:51:42.897Z,8.70
2023-04-11T17:54:13.140Z,3.97
2023-04-11T17:56:40.526Z,4.88
2023-04-11T17:59:07.266Z,6.90
2023-04-11T18:01:34.385Z,6.03
2023-04-11T18:04:02.353Z,6.47
2023-04-11T18:06:30.196Z,3.92
2023-04-11T18:08:57.681Z,3.38
2023-04-11T18:11:25.124Z,4.72
2023-04-11T18:13:52.060Z,3.70
2023-04-11T18:16:19.316Z,5.40
2023-04-11T18:18:47.616Z,4.15
2023-04-11T18:21:16.099Z,6.13
2023-04-11T18:23:43.506Z,2.20
2023-04-11T18:26:10.443Z,2.03
2023-04-11T18:28:37.407Z,1.48
2023-04-11T18:31:05.258Z,3.47
2023-04-11T18:33:33.197Z,1.35
2023-04-11T18:36:00.371Z,1.50
2023-04-11T18:38:27.481Z,2.67
2023-04-11T18:40:55.698Z,2.15
2023-04-11T18:43:24.619Z,2.63
2023-04-11T18:45:51.621Z,1.45
2023-04-11T18:48:20.697Z,1.85
2023-04-11T18:50:49.361Z,1.30
2023-04-11T18:53:17.409Z,1.55
2023-04-11T18:55:46.751Z,2.35
2023-04-11T18:58:15.933Z,3.50
2023-04-11T19:00:49.361Z,2.08
2023-04-11T19:03:16.636Z,2.08
2023-04-11T19:05:44.112Z,1.98
2023-04-11T19:08:11.157Z,3.25
2023-04-11T19:10:38.067Z,2.55
2023-04-11T19:13:05.967Z,4.60
2023-04-11T19:15:33.148Z,5.10
2023-04-11T19:18:00.672Z,9.45
2023-04-11T19:20:28.597Z,4.93
2023-04-11T19:22:55.394Z,5.03
2023-04-11T19:25:22.559Z,4.00
2023-04-11T19:27:49.761Z,3.63
2023-04-11T19:30:17.315Z,3.40
2023-04-11T19:32:46.085Z,3.60
2023-04-11T19:35:13.765Z,1.90
2023-04-11T19:37:40.894Z,5.65
2023-04-11T19:40:11.351Z,4.60
2023-04-11T19:42:40.334Z,3.88
2023-04-11T19:45:09.261Z,7.10
2023-04-11T19:47:36.667Z,5.50
2023-04-11T19:50:04.625Z,5.25
2023-04-11T19:52:32.792Z,4.47
2023-04-11T19:54:59.544Z,3.47
2023-04-11T19:57:27.706Z,5.75
2023-04-11T19:59:55.646Z,3.35
2023-04-11T20:02:23.190Z,5.22
2023-04-11T20:04:50.328Z,8.57
2023-04-11T20:07:17.985Z,5.30
2023-04-11T20:09:44.812Z,5.47
2023-04-11T20:12:12.020Z,8.20
2023-04-11T20:14:38.845Z,5.80
2023-04-11T20:17:06.331Z,10.10
2023-04-11T20:19:33.504Z,6.93
2023-04-11T20:22:12.676Z,10.63
2023-04-11T20:24:39.611Z,5.32
2023-04-11T20:27:06.401Z,5.47
2023-04-11T20:29:33.182Z,4.25
2023-04-11T20:32:00.099Z,8.80
2023-04-11T20:34:28.148Z,7.13
2023-04-11T20:36:56.459Z,9.15
2023-04-11T20:39:23.494Z,6.85
2023-04-11T20:41:52.531Z,7.30
2023-04-11T20:44:27.019Z,7.40
2023-04-11T20:46:54.324Z,8.30
2023-04-11T20:49:23.431Z,7.10
2023-04-11T20:51:51.287Z,7.80
2023-04-11T20:54:20.525Z,7.53
2023-04-11T20:56:47.326Z,6.95
2023-04-11T20:59:14.299Z,11.43
2023-04-11T21:01:41.962Z,10.98
2023-04-11T21:04:09.966Z,7.72
2023-04-11T21:06:36.957Z,12.15
2023-04-11T21:09:06.909Z,10.25
2023-04-11T21:11:33.822Z,12.27
2023-04-11T21:14:01.060Z,9.02
2023-04-11T21:16:27.946Z,9.43
2023-04-11T21:18:56.802Z,14.60
2023-04-11T21:21:26.305Z,9.63
2023-04-11T21:23:53.910Z,9.43
2023-04-11T21:26:21.590Z,9.10
2023-04-11T21:28:48.854Z,11.15
2023-04-11T21:31:15.753Z,8.98
2023-04-11T21:33:44.982Z,13.05
2023-04-11T21:36:12.105Z,9.20
2023-04-11T21:38:43.294Z,10.13
2023-04-11T21:41:10.339Z,10.55
2023-04-11T21:43:37.090Z,10.15
2023-04-11T21:46:03.988Z,11.45
2023-04-11T21:48:31.074Z,9.25
2023-04-11T21:50:57.806Z,11.32
2023-04-11T21:53:24.615Z,8.27
2023-04-11T21:55:51.867Z,18.08
2023-04-11T21:58:28.675Z,13.07
2023-04-11T22:00:58.559Z,9.77
2023-04-11T22:03:26.668Z,12.82
2023-04-11T22:05:55.695Z,10.07
2023-04-11T22:08:24.856Z,11.30
2023-04-11T22:10:52.425Z,9.82
2023-04-11T22:13:20.412Z,8.18
2023-04-11T22:16:05.414Z,11.38
2023-04-11T22:18:46.800Z,13.05
2023-04-11T22:21:19.758Z,13.55
2023-04-11T22:23:56.181Z,12.55
2023-04-11T22:26:34.197Z,9.70
2023-04-11T22:29:05.093Z,9.38
2023-04-11T22:31:34.786Z,14.15
2023-04-11T22:34:04.675Z,10.85
2023-04-11T22:36:36.289Z,13.23
2023-04-11T22:39:07.006Z,10.23
2023-04-11T22:41:35.390Z,11.88
2023-04-11T22:44:03.101Z,9.27
2023-04-11T22:46:38.381Z,7.50
2023-04-11T22:49:09.838Z,8.60
2023-04-11T22:51:38.487Z,8.50
2023-04-11T22:54:05.427Z,10.90
2023-04-11T22:56:32.194Z,9.50
2023-04-11T22:59:00.317Z,10.45
2023-04-11T23:01:28.618Z,9.10
2023-04-11T23:03:56.346Z,13.15
2023-04-11T23:06:23.682Z,6.97
2023-04-11T23:08:51.917Z,10.05
2023-04-11T23:11:18.594Z,10.32
2023-04-11T23:13:45.305Z,9.50
2023-04-11T23:16:13.337Z,8.07
2023-04-11T23:18:40.313Z,10.18
2023-04-11T23:21:14.789Z,9.25
2023-04-11T23:23:42.669Z,8.50
2023-04-11T23:26:17.431Z,9.55
2023-04-11T23:28:47.022Z,13.75
2023-04-11T23:31:13.761Z,7.40
2023-04-11T23:33:41.428Z,6.20
2023-04-11T23:36:09.231Z,9.95
2023-04-11T23:38:37.639Z,12.43
2023-04-11T23:41:05.570Z,9.63
2023-04-11T23:43:32.597Z,10.95
2023-04-11T23:45:59.595Z,8.82
2023-04-11T23:48:28.011Z,8.50
2023-04-11T23:50:54.705Z,7.20
2023-04-11T23:53:21.842Z,11.43
2023-04-11T23:55:49.041Z,7.47
2023-04-11T23:58:16.123Z,10.27
